createdAt,value
2022-08-09T00:00:00.152Z,20.20
2022-08-09T00:02:28.949Z,20.00
2022-08-09T00:05:02.904Z,20.00
2022-08-09T00:07:45.058Z,20.00
2022-08-09T00:10:18.238Z,20.00
2022-08-09T00:12:52.683Z,19.90
2022-08-09T00:15:26.398Z,19.90
2022-08-09T00:18:11.310Z,19.90
2022-08-09T00:20:41.423Z,20.00
2022-08-09T00:23:56.143Z,20.00
2022-08-09T00:26:05.126Z,19.90
2022-08-09T00:28:34.511Z,19.90
2022-08-09T00:31:30.571Z,19.70
2022-08-09T00:33:51.976Z,19.70
2022-08-09T00:36:20.314Z,19.80
2022-08-09T00:38:50.848Z,19.80
2022-08-09T00:44:10.467Z,19.70
2022-08-09T00:44:27.275Z,19.70
2022-08-09T00:47:05.547Z,19.80
2022-08-09T00:49:36.538Z,19.70
2022-08-09T00:52:16.045Z,19.70
2022-08-09T00:54:45.623Z,19.60
2022-08-09T00:57:13.659Z,19.60
2022-08-09T00:59:46.243Z,19.50
2022-08-09T01:02:24.007Z,19.60
2022-08-09T01:05:53.540Z,19.60
2022-08-09T01:08:26.993Z,19.60
2022-08-09T01:10:58.481Z,19.70
2022-08-09T01:13:31.053Z,19.70
2022-08-09T01:16:11.222Z,19.70
2022-08-09T01:18:47.409Z,19.60
2022-08-09T01:21:56.545Z,19.50
2022-08-09T01:24:50.304Z,19.60
2022-08-09T01:27:23.856Z,19.50
2022-08-09T01:30:02.959Z,19.40
2022-08-09T01:32:36.313Z,19.50
2022-08-09T01:35:28.360Z,19.50
2022-08-09T01:38:09.987Z,19.50
2022-08-09T01:40:42.991Z,19.50
2022-08-09T01:43:11.932Z,19.60
2022-08-09T01:45:46.205Z,19.40
2022-08-09T01:48:20.032Z,19.30
2022-08-09T01:50:58.505Z,19.30
2022-08-09T01:53:29.153Z,19.30
2022-08-09T01:56:03.200Z,19.20
2022-08-09T01:58:32.386Z,19.10
2022-08-09T02:01:01.059Z,19.20
2022-08-09T02:03:31.225Z,19.30
2022-08-09T02:06:06.579Z,19.30
2022-08-09T02:08:58.620Z,19.30
2022-08-09T02:11:42.579Z,19.40
2022-08-09T02:14:15.140Z,19.40
2022-08-09T02:16:59.591Z,19.40
2022-08-09T02:19:43.353Z,19.30
2022-08-09T02:22:27.213Z,19.40
2022-08-09T02:25:03.178Z,19.50
2022-08-09T02:27:57.305Z,19.40
2022-08-09T02:30:19.794Z,19.30
2022-08-09T02:32:48.556Z,19.30
2022-08-09T02:35:26.140Z,19.40
2022-08-09T02:38:11.596Z,19.30
2022-08-09T02:40:49.656Z,19.20
2022-08-09T02:43:19.166Z,19.30
2022-08-09T02:45:50.644Z,19.30
2022-08-09T02:48:19.626Z,19.30
2022-08-09T02:51:02.529Z,19.40
2022-08-09T02:53:52.993Z,19.20
2022-08-09T02:56:30.654Z,19.10
2022-08-09T02:58:59.783Z,19.00
2022-08-09T03:01:29.685Z,19.00
2022-08-09T03:04:19.394Z,19.10
2022-08-09T03:06:48.942Z,19.00
2022-08-09T03:09:17.768Z,18.90
2022-08-09T03:12:05.205Z,18.90
2022-08-09T03:14:34.009Z,18.90
2022-08-09T03:17:05.808Z,18.90
2022-08-09T03:19:59.617Z,18.90
2022-08-09T03:22:25.432Z,18.90
2022-08-09T03:25:26.911Z,18.90
2022-08-09T03:27:57.637Z,19.00
2022-08-09T03:30:33.975Z,19.00
2022-08-09T03:33:13.008Z,18.90
2022-08-09T03:36:12.878Z,19.00
2022-08-09T03:38:31.558Z,18.90
2022-08-09T03:40:58.543Z,18.90
2022-08-09T03:43:31.854Z,19.00
2022-08-09T03:46:20.153Z,19.00
2022-08-09T03:48:55.128Z,19.00
2022-08-09T03:51:57.588Z,19.00
2022-08-09T03:54:14.675Z,19.00
2022-08-09T03:56:42.880Z,19.00
2022-08-09T03:59:20.784Z,18.90
2022-08-09T04:01:56.568Z,18.80
2022-08-09T04:04:32.659Z,18.80
2022-08-09T04:07:04.475Z,18.90
2022-08-09T04:09:47.655Z,18.90
2022-08-09T04:12:35.341Z,18.90
2022-08-09T04:15:11.527Z,18.80
2022-08-09T04:17:47.560Z,18.70
2022-08-09T04:20:15.557Z,18.70
2022-08-09T04:22:44.577Z,18.70
2022-08-09T04:25:12.148Z,18.70
2022-08-09T04:27:48.877Z,18.70
2022-08-09T04:30:20.891Z,18.70
2022-08-09T04:32:50.743Z,18.70
2022-08-09T04:35:18.319Z,18.70
2022-08-09T04:37:49.746Z,18.70
2022-08-09T04:40:28.897Z,18.60
2022-08-09T04:43:03.919Z,18.60
2022-08-09T04:45:35.997Z,18.40
2022-08-09T04:48:19.261Z,18.60
2022-08-09T04:50:46.525Z,18.60
2022-08-09T04:53:17.009Z,18.60
2022-08-09T04:55:57.736Z,18.50
2022-08-09T04:58:25.930Z,18.50
2022-08-09T05:00:54.248Z,18.60
2022-08-09T05:03:40.169Z,18.60
2022-08-09T05:06:10.068Z,18.60
2022-08-09T05:08:38.423Z,18.60
2022-08-09T05:11:06.698Z,18.70
2022-08-09T05:13:38.853Z,18.60
2022-08-09T05:16:07.933Z,18.70
2022-08-09T05:18:37.862Z,18.70
2022-08-09T05:21:13.357Z,18.60
2022-08-09T05:23:58.690Z,18.60
2022-08-09T05:26:45.484Z,18.70
2022-08-09T05:29:21.216Z,18.80
2022-08-09T05:31:57.026Z,18.80
2022-08-09T05:34:31.512Z,19.00
2022-08-09T05:37:07.397Z,18.90
2022-08-09T05:39:43.397Z,19.00
2022-08-09T05:42:21.098Z,19.00
2022-08-09T05:44:50.437Z,19.00
2022-08-09T05:47:19.255Z,19.00
2022-08-09T05:50:25.297Z,19.00
2022-08-09T05:52:36.354Z,19.10
2022-08-09T05:55:07.360Z,19.20
2022-08-09T05:57:51.315Z,19.30
2022-08-09T06:00:23.361Z,19.30
2022-08-09T06:02:54.334Z,19.40
2022-08-09T06:05:50.196Z,19.50
2022-08-09T06:08:11.606Z,19.50
2022-08-09T06:10:39.033Z,19.50
2022-08-09T06:13:18.856Z,19.50
2022-08-09T06:15:51.348Z,19.60
2022-08-09T06:18:24.868Z,19.60
2022-08-09T06:20:57.885Z,19.50
2022-08-09T06:23:54.976Z,19.60
2022-08-09T06:26:15.093Z,19.70
2022-08-09T06:29:00.368Z,19.70
2022-08-09T06:31:39.893Z,19.70
2022-08-09T06:34:20.132Z,19.70
2022-08-09T06:36:58.944Z,19.90
2022-08-09T06:39:48.374Z,19.90
2022-08-09T06:42:20.181Z,19.90
2022-08-09T06:44:54.279Z,20.00
2022-08-09T06:47:21.636Z,20.00
2022-08-09T06:50:13.336Z,20.10
2022-08-09T06:52:35.957Z,20.20
2022-08-09T06:55:12.635Z,20.30
2022-08-09T06:58:01.840Z,20.40
2022-08-09T07:00:56.410Z,20.50
2022-08-09T07:03:15.457Z,20.70
2022-08-09T07:06:02.578Z,20.80
2022-08-09T07:08:30.622Z,20.80
2022-08-09T07:10:57.653Z,20.80
2022-08-09T07:13:28.237Z,20.90
2022-08-09T07:16:38.988Z,20.90
2022-08-09T07:18:47.490Z,21.00
2022-08-09T07:21:17.085Z,21.00
2022-08-09T07:23:46.609Z,20.90
2022-08-09T07:26:24.158Z,20.80
2022-08-09T07:29:01.283Z,20.90
2022-08-09T07:31:45.274Z,21.00
2022-08-09T07:34:20.195Z,21.20
2022-08-09T07:36:48.793Z,21.30
2022-08-09T07:39:20.377Z,21.40
2022-08-09T07:42:02.662Z,21.50
2022-08-09T07:44:50.923Z,21.60
2022-08-09T07:47:16.613Z,21.70
2022-08-09T07:50:05.313Z,21.80
2022-08-09T07:52:30.734Z,21.80
2022-08-09T07:54:58.085Z,21.80
2022-08-09T07:57:33.739Z,22.00
2022-08-09T08:00:04.470Z,22.10
2022-08-09T08:02:36.631Z,22.30
2022-08-09T08:05:17.704Z,22.40
2022-08-09T08:08:43.231Z,22.40
2022-08-09T08:10:34.347Z,22.50
2022-08-09T08:13:03.662Z,22.60
2022-08-09T08:15:35.498Z,22.60
2022-08-09T08:18:04.873Z,22.60
2022-08-09T08:20:32.678Z,22.80
2022-08-09T08:23:16.435Z,22.90
2022-08-09T08:25:50.377Z,23.00
2022-08-09T08:28:34.823Z,23.10
2022-08-09T08:31:13.623Z,23.20
2022-08-09T08:33:52.683Z,23.40
2022-08-09T08:36:29.469Z,23.50
2022-08-09T08:38:57.962Z,23.50
2022-08-09T08:41:30.798Z,23.50
2022-08-09T08:44:13.732Z,23.60
2022-08-09T08:46:59.620Z,23.80
2022-08-09T08:49:46.482Z,24.00
2022-08-09T08:55:15.370Z,24.30
2022-08-09T08:57:56.502Z,24.30
2022-08-09T09:00:29.986Z,24.50
2022-08-09T09:03:10.411Z,24.60
2022-08-09T09:05:58.840Z,24.80
2022-08-09T09:08:32.457Z,24.80
2022-08-09T09:11:08.878Z,24.90
2022-08-09T09:13:56.235Z,25.10
2022-08-09T09:16:34.076Z,25.20
2022-08-09T09:22:05.459Z,25.40
2022-08-09T09:24:39.623Z,25.40
2022-08-09T09:27:08.811Z,25.60
2022-08-09T09:30:12.331Z,25.70
2022-08-09T09:32:34.318Z,25.80
2022-08-09T09:35:09.638Z,26.10
2022-08-09T09:37:40.504Z,26.10
2022-08-09T09:40:09.285Z,26.10
2022-08-09T09:42:36.382Z,26.20
2022-08-09T09:45:08.395Z,26.20
2022-08-09T09:47:47.910Z,26.30
2022-08-09T09:50:49.420Z,26.50
2022-08-09T09:53:34.335Z,26.60
2022-08-09T09:56:30.875Z,26.60
2022-08-09T09:58:58.431Z,26.70
2022-08-09T10:01:37.306Z,26.80
2022-08-09T10:04:15.928Z,27.00
2022-08-09T10:06:51.883Z,27.00
2022-08-09T10:09:23.227Z,26.80
2022-08-09T10:12:14.335Z,27.10
2022-08-09T10:14:49.938Z,27.20
2022-08-09T10:17:50.775Z,27.30
2022-08-09T10:20:32.931Z,27.40
2022-08-09T10:23:22.056Z,27.50
2022-08-09T10:26:07.111Z,27.40
2022-08-09T10:28:38.543Z,27.60
2022-08-09T10:32:27.684Z,27.80
2022-08-09T10:34:32.356Z,28.10
2022-08-09T10:36:49.910Z,28.40
2022-08-09T10:39:19.853Z,28.40
2022-08-09T10:41:48.359Z,28.20
2022-08-09T10:44:23.102Z,28.10
2022-08-09T10:48:19.497Z,27.90
2022-08-09T10:50:31.235Z,28.10
2022-08-09T10:53:27.076Z,28.40
2022-08-09T10:56:22.769Z,28.70
2022-08-09T10:58:54.037Z,29.00
2022-08-09T11:03:17.995Z,29.20
2022-08-09T11:04:31.713Z,29.40
2022-08-09T11:07:00.753Z,29.50
2022-08-09T11:09:47.492Z,29.60
2022-08-09T11:12:29.933Z,29.80
2022-08-09T11:15:23.943Z,30.00
2022-08-09T11:18:02.805Z,30.10
2022-08-09T11:20:50.517Z,30.30
2022-08-09T11:23:23.843Z,30.40
2022-08-09T11:25:51.632Z,30.40
2022-08-09T11:28:34.449Z,30.50
2022-08-09T11:31:49.760Z,30.60
2022-08-09T11:34:44.377Z,30.70
2022-08-09T11:37:28.019Z,30.70
2022-08-09T11:40:10.650Z,30.80
2022-08-09T11:42:48.738Z,30.80
2022-08-09T11:45:42.585Z,30.90
2022-08-09T11:48:26.251Z,30.90
2022-08-09T11:52:06.743Z,31.00
2022-08-09T11:54:29.033Z,31.20
2022-08-09T11:57:48.019Z,31.40
2022-08-09T12:00:29.725Z,31.60
2022-08-09T12:03:00.469Z,31.70
2022-08-09T12:05:48.295Z,31.70
2022-08-09T12:08:21.649Z,31.80
2022-08-09T12:10:53.607Z,32.10
2022-08-09T12:14:10.298Z,32.10
2022-08-09T12:16:38.487Z,32.30
2022-08-09T12:19:09.452Z,32.40
2022-08-09T12:21:39.244Z,32.50
2022-08-09T12:24:26.024Z,32.70
2022-08-09T12:28:58.461Z,32.90
2022-08-09T12:29:59.984Z,33.00
2022-08-09T12:32:31.717Z,32.90
2022-08-09T12:35:03.116Z,32.90
2022-08-09T12:37:37.880Z,33.00
2022-08-09T12:40:12.023Z,33.50
2022-08-09T12:42:44.371Z,34.10
2022-08-09T12:45:32.329Z,34.20
2022-08-09T12:47:59.721Z,34.70
2022-08-09T12:50:28.563Z,35.30
2022-08-09T12:53:07.884Z,36.00
2022-08-09T12:56:12.272Z,36.10
2022-08-09T12:58:29.762Z,37.00
2022-08-09T13:00:57.611Z,37.90
2022-08-09T13:03:54.067Z,39.00
2022-08-09T13:06:38.871Z,39.90
2022-08-09T13:09:18.182Z,40.10
2022-08-09T13:11:49.777Z,40.90
2022-08-09T13:14:41.063Z,42.30
2022-08-09T13:17:16.334Z,43.20
2022-08-09T13:20:13.985Z,44.30
2022-08-09T13:23:05.553Z,44.80
2022-08-09T13:25:52.806Z,45.40
2022-08-09T13:28:33.715Z,46.50
2022-08-09T13:32:13.559Z,46.90
2022-08-09T13:33:55.321Z,46.90
2022-08-09T13:36:42.328Z,47.10
2022-08-09T13:41:19.483Z,46.80
2022-08-09T13:42:12.186Z,46.00
2022-08-09T13:44:43.245Z,45.20
2022-08-09T13:47:31.204Z,45.90
2022-08-09T13:50:12.568Z,45.80
2022-08-09T13:52:46.184Z,46.40
2022-08-09T13:55:15.620Z,47.20
2022-08-09T13:57:56.357Z,47.40
2022-08-09T14:00:28.692Z,47.20
2022-08-09T14:03:03.911Z,46.90
2022-08-09T14:05:59.860Z,47.20
2022-08-09T14:08:30.017Z,47.30
2022-08-09T14:10:57.494Z,47.40
2022-08-09T14:14:16.198Z,48.10
2022-08-09T14:16:16.692Z,48.00
2022-08-09T14:18:49.496Z,48.00
2022-08-09T14:21:20.828Z,47.80
2022-08-09T14:23:54.576Z,47.70
2022-08-09T14:26:30.166Z,47.80
2022-08-09T14:28:57.821Z,47.50
2022-08-09T14:31:49.782Z,47.20
2022-08-09T14:34:13.103Z,47.10
2022-08-09T14:36:44.475Z,47.10
2022-08-09T14:39:12.101Z,46.80
2022-08-09T14:41:41.829Z,47.10
2022-08-09T14:44:09.585Z,46.60
2022-08-09T14:47:04.633Z,46.20
2022-08-09T14:49:27.117Z,46.10
2022-08-09T14:51:58.744Z,45.50
2022-08-09T14:54:27.731Z,45.50
2022-08-09T14:56:58.704Z,45.50
2022-08-09T14:59:28.601Z,45.30
2022-08-09T15:01:56.244Z,45.30
2022-08-09T15:04:23.961Z,46.00
2022-08-09T15:06:51.966Z,46.60
2022-08-09T15:09:51.969Z,46.20
2022-08-09T15:12:07.893Z,46.30
2022-08-09T15:14:38.166Z,46.40
2022-08-09T15:17:09.832Z,46.50
2022-08-09T15:19:59.320Z,46.30
2022-08-09T15:22:30.532Z,46.30
2022-08-09T15:25:00.132Z,46.60
2022-08-09T15:27:47.435Z,45.90
2022-08-09T15:30:56.077Z,46.10
2022-08-09T15:33:07.252Z,46.10
2022-08-09T15:35:44.562Z,45.90
2022-08-09T15:38:12.269Z,45.60
2022-08-09T15:40:43.879Z,44.90
2022-08-09T15:43:13.190Z,44.60
2022-08-09T15:46:08.131Z,45.20
2022-08-09T15:48:31.960Z,44.90
2022-08-09T15:51:00.804Z,44.90
2022-08-09T15:54:06.983Z,44.70
2022-08-09T15:56:28.484Z,44.80
2022-08-09T15:58:56.880Z,44.90
2022-08-09T16:01:23.833Z,44.70
2022-08-09T16:03:51.178Z,44.30
2022-08-09T16:06:35.136Z,44.50
2022-08-09T16:09:05.801Z,44.80
2022-08-09T16:11:33.562Z,43.40
2022-08-09T16:14:07.049Z,43.20
2022-08-09T16:16:37.129Z,43.60
2022-08-09T16:19:09.225Z,43.20
2022-08-09T16:21:37.592Z,43.20
2022-08-09T16:24:13.062Z,43.50
2022-08-09T16:26:53.173Z,42.90
2022-08-09T16:29:36.708Z,42.90
2022-08-09T16:32:20.275Z,42.30
2022-08-09T16:34:57.059Z,41.60
2022-08-09T16:37:54.963Z,41.50
2022-08-09T16:40:20.303Z,41.70
2022-08-09T16:42:56.320Z,41.40
2022-08-09T16:45:23.194Z,41.90
2022-08-09T16:48:38.344Z,42.00
2022-08-09T16:50:39.210Z,42.00
2022-08-09T16:53:06.482Z,42.00
2022-08-09T16:55:57.843Z,41.40
2022-08-09T16:58:22.700Z,40.90
2022-08-09T17:00:50.264Z,40.90
2022-08-09T17:03:22.179Z,40.50
2022-08-09T17:06:07.770Z,40.50
2022-08-09T17:08:58.113Z,40.30
2022-08-09T17:11:40.812Z,40.20
2022-08-09T17:14:26.430Z,40.10
2022-08-09T17:17:02.672Z,39.70
2022-08-09T17:20:05.915Z,39.60
2022-08-09T17:22:29.021Z,39.10
2022-08-09T17:25:03.019Z,38.60
2022-08-09T17:27:31.565Z,38.00
2022-08-09T17:29:58.420Z,37.50
2022-08-09T17:32:37.559Z,36.60
2022-08-09T17:35:11.913Z,36.30
2022-08-09T17:38:11.244Z,36.30
2022-08-09T17:40:33.506Z,36.10
2022-08-09T17:43:32.560Z,35.70
2022-08-09T17:46:02.697Z,35.70
2022-08-09T17:48:32.663Z,35.80
2022-08-09T17:51:08.958Z,35.30
2022-08-09T17:53:43.367Z,35.00
2022-08-09T17:56:15.168Z,34.70
2022-08-09T17:58:45.596Z,34.50
2022-08-09T18:01:15.571Z,34.30
2022-08-09T18:03:50.033Z,34.40
2022-08-09T18:06:31.159Z,34.00
2022-08-09T18:09:03.207Z,34.00
2022-08-09T18:12:04.917Z,33.80
2022-08-09T18:14:20.999Z,33.80
2022-08-09T18:16:48.925Z,33.60
2022-08-09T18:20:54.058Z,33.60
2022-08-09T18:22:04.344Z,33.60
2022-08-09T18:24:31.479Z,33.30
2022-08-09T18:27:01.066Z,32.90
2022-08-09T18:30:35.097Z,32.10
2022-08-09T18:32:19.009Z,31.50
2022-08-09T18:34:48.310Z,31.10
2022-08-09T18:37:48.992Z,30.60
2022-08-09T18:40:02.759Z,30.20
2022-08-09T18:42:30.926Z,29.50
2022-08-09T18:45:01.139Z,29.20
2022-08-09T18:47:37.192Z,29.00
2022-08-09T18:50:06.275Z,28.70
2022-08-09T18:52:39.112Z,28.40
2022-08-09T18:55:13.448Z,28.10
2022-08-09T18:57:44.654Z,27.90
2022-08-09T19:00:16.313Z,27.70
2022-08-09T19:02:47.099Z,27.40
2022-08-09T19:05:20.651Z,27.30
2022-08-09T19:08:09.564Z,27.10
2022-08-09T19:10:39.176Z,27.00
2022-08-09T19:13:20.727Z,26.90
2022-08-09T19:15:59.748Z,26.90
2022-08-09T19:18:32.874Z,26.80
2022-08-09T19:21:02.536Z,26.70
2022-08-09T19:24:36.082Z,26.60
2022-08-09T19:26:16.864Z,26.60
2022-08-09T19:28:48.901Z,26.40
2022-08-09T19:31:16.744Z,26.30
2022-08-09T19:33:44.128Z,26.20
2022-08-09T19:36:11.968Z,26.00
2022-08-09T19:38:40.639Z,26.00
2022-08-09T19:41:10.319Z,25.90
2022-08-09T19:44:00.431Z,25.70
2022-08-09T19:46:34.995Z,25.70
2022-08-09T19:50:09.845Z,25.70
2022-08-09T19:51:55.177Z,25.60
2022-08-09T19:54:27.159Z,25.60
2022-08-09T19:56:55.394Z,25.60
2022-08-09T19:59:59.595Z,25.50
2022-08-09T20:04:06.874Z,25.50
2022-08-09T20:04:59.594Z,25.50
2022-08-09T20:07:56.776Z,25.40
2022-08-09T20:10:17.738Z,25.40
2022-08-09T20:12:49.575Z,25.30
2022-08-09T20:16:34.295Z,25.10
2022-08-09T20:18:07.483Z,25.20
2022-08-09T20:20:37.538Z,25.10
2022-08-09T20:23:04.784Z,25.00
2022-08-09T20:25:51.486Z,25.00
2022-08-09T20:28:27.637Z,24.90
2022-08-09T20:30:59.049Z,24.90
2022-08-09T20:33:26.068Z,24.90
2022-08-09T20:35:53.246Z,24.90
2022-08-09T20:38:34.030Z,24.90
2022-08-09T20:41:09.609Z,24.90
2022-08-09T20:43:36.684Z,24.80
2022-08-09T20:46:33.346Z,24.70
2022-08-09T20:48:59.059Z,24.70
2022-08-09T20:51:26.827Z,24.60
2022-08-09T20:53:55.242Z,24.60
2022-08-09T20:56:22.130Z,24.50
2022-08-09T20:58:59.183Z,24.40
2022-08-09T21:01:34.072Z,24.40
2022-08-09T21:05:54.279Z,24.40
2022-08-09T21:07:11.291Z,24.50
2022-08-09T21:09:56.669Z,24.40
2022-08-09T21:15:23.826Z,24.30
2022-08-09T21:18:23.187Z,24.30
2022-08-09T21:20:54.289Z,24.30
2022-08-09T21:23:21.763Z,24.30
2022-08-09T21:25:59.939Z,24.20
2022-08-09T21:28:34.811Z,24.20
2022-08-09T21:31:17.049Z,24.10
2022-08-09T21:33:49.423Z,24.00
2022-08-09T21:36:23.107Z,23.90
2022-08-09T21:38:57.366Z,23.80
2022-08-09T21:42:05.609Z,23.70
2022-08-09T21:44:32.847Z,23.60
2022-08-09T21:47:03.719Z,23.50
2022-08-09T21:49:39.988Z,23.40
2022-08-09T21:52:17.415Z,23.30
2022-08-09T21:55:03.357Z,23.20
2022-08-09T21:57:39.489Z,23.20
2022-08-09T22:00:32.453Z,23.20
2022-08-09T22:03:04.620Z,23.10
2022-08-09T22:05:35.539Z,23.00
2022-08-09T22:08:05.107Z,23.00
2022-08-09T22:10:32.036Z,22.90
2022-08-09T22:13:00.368Z,22.90
2022-08-09T22:15:36.931Z,22.90
2022-08-09T22:18:04.351Z,22.90
2022-08-09T22:20:40.301Z,22.80
2022-08-09T22:23:10.462Z,22.80
2022-08-09T22:26:07.517Z,22.70
2022-08-09T22:28:32.337Z,22.60
2022-08-09T22:30:59.747Z,22.60
2022-08-09T22:33:37.564Z,22.50
2022-08-09T22:36:13.688Z,22.50
2022-08-09T22:38:46.768Z,22.50
2022-08-09T22:41:13.664Z,22.40
2022-08-09T22:44:01.621Z,22.40
2022-08-09T22:48:10.522Z,22.40
2022-08-09T22:49:14.570Z,22.50
2022-08-09T22:51:49.566Z,22.30
2022-08-09T22:54:23.504Z,22.40
2022-08-09T22:56:54.721Z,22.30
2022-08-09T22:59:56.305Z,22.30
2022-08-09T23:02:11.348Z,22.20
2022-08-09T23:04:53.926Z,22.10
2022-08-09T23:08:21.885Z,22.10
2022-08-09T23:10:30.211Z,22.10
2022-08-09T23:12:58.633Z,22.10
2022-08-09T23:15:26.387Z,22.10
2022-08-09T23:17:53.386Z,21.90
2022-08-09T23:20:20.352Z,22.00
2022-08-09T23:22:47.225Z,22.10
2022-08-09T23:25:14.182Z,22.10
2022-08-09T23:27:57.361Z,22.10
2022-08-09T23:30:28.579Z,22.00
2022-08-09T23:32:55.543Z,21.90
2022-08-09T23:35:22.518Z,21.80
2022-08-09T23:37:49.512Z,21.90
2022-08-09T23:40:17.162Z,21.80
2022-08-09T23:42:44.055Z,21.80
2022-08-09T23:45:11.297Z,21.70
2022-08-09T23:47:58.325Z,21.80
2022-08-09T23:50:25.446Z,21.70
2022-08-09T23:52:52.523Z,21.70
2022-08-09T23:55:19.465Z,21.60
2022-08-09T23:58:08.053Z,21.50
